Time;durP1;ratioP1;P1;durP2;ratioP2;P2;SDS_P1;SDS_P2;PMS_P1;PMS_P2;Temp;Humidity;BMP_temperature;BMP_pressure;BME280_temperature;BME280_humidity;BME280_pressure;Samples;Min_cycle;Max_cycle;Signal;HPM_P1;HPM_P2
2021/01/08 00:00:56;;;;;;;8.90;6.83;;;5.30;99.90;;;;;;5072113;28;20592;-62
2021/01/08 00:03:22;;;;;;;8.77;6.47;;;5.20;99.90;;;;;;5071696;28;20266;-61
2021/01/08 00:05:49;;;;;;;9.73;6.90;;;5.20;99.90;;;;;;5071934;28;20220;-60
2021/01/08 00:08:16;;;;;;;9.53;7.00;;;5.20;99.90;;;;;;5071515;28;20247;-63
2021/01/08 00:10:42;;;;;;;10.30;7.30;;;5.20;99.90;;;;;;5071487;28;20208;-61
2021/01/08 00:13:09;;;;;;;9.53;7.07;;;5.20;99.90;;;;;;5071879;28;20205;-60
2021/01/08 00:15:35;;;;;;;10.63;7.90;;;5.20;99.90;;;;;;5071311;28;20201;-61
2021/01/08 00:18:01;;;;;;;10.83;7.40;;;5.20;99.90;;;;;;5071187;28;20209;-61
2021/01/08 00:20:27;;;;;;;10.63;7.83;;;5.30;99.90;;;;;;5071284;28;20205;-62
2021/01/08 00:22:54;;;;;;;11.33;7.80;;;5.30;99.90;;;;;;5070744;28;20615;-63
2021/01/08 00:25:20;;;;;;;9.30;7.13;;;5.20;99.90;;;;;;5070954;28;20319;-60
2021/01/08 00:27:46;;;;;;;9.83;7.17;;;5.30;99.90;;;;;;5071246;28;20220;-62
2021/01/08 00:30:14;;;;;;;11.03;8.00;;;5.30;99.90;;;;;;5071808;28;20209;-61
2021/01/08 00:32:40;;;;;;;10.90;7.93;;;5.30;99.90;;;;;;5071403;28;20692;-61
2021/01/08 00:35:09;;;;;;;10.43;7.47;;;5.30;99.90;;;;;;5070948;28;20208;-61
2021/01/08 00:37:35;;;;;;;9.07;6.90;;;5.30;99.90;;;;;;5071104;28;20298;-61
2021/01/08 00:40:01;;;;;;;10.13;7.43;;;5.40;99.90;;;;;;5071258;28;20299;-61
2021/01/08 00:42:27;;;;;;;10.87;7.47;;;5.30;99.90;;;;;;5071526;28;20208;-63
2021/01/08 00:44:54;;;;;;;9.70;7.17;;;5.30;99.90;;;;;;5071046;28;20286;-61
2021/01/08 00:47:21;;;;;;;9.03;7.43;;;5.40;99.90;;;;;;5071370;28;20233;-63
2021/01/08 00:49:47;;;;;;;10.30;7.63;;;5.40;99.90;;;;;;5071128;28;20250;-61
2021/01/08 00:52:13;;;;;;;9.93;7.67;;;5.40;99.90;;;;;;5071078;28;20204;-60
2021/01/08 00:54:42;;;;;;;11.23;7.40;;;5.40;99.90;;;;;;5071006;28;20211;-60
2021/01/08 00:57:08;;;;;;;11.60;8.07;;;5.50;99.90;;;;;;5071226;28;20257;-59
2021/01/08 00:59:35;;;;;;;10.83;7.40;;;5.50;99.90;;;;;;5070978;28;20212;-60
2021/01/08 01:02:01;;;;;;;11.13;7.90;;;5.50;99.90;;;;;;5071082;28;20230;-60
2021/01/08 01:04:28;;;;;;;10.07;8.03;;;5.50;99.90;;;;;;5070646;28;20221;-61
2021/01/08 01:06:54;;;;;;;11.17;7.20;;;5.50;99.90;;;;;;5070719;28;20224;-61
2021/01/08 01:09:20;;;;;;;11.47;7.47;;;5.50;99.90;;;;;;5070703;28;20212;-61
2021/01/08 01:11:46;;;;;;;9.53;7.83;;;5.50;99.90;;;;;;5071176;28;20205;-61
2021/01/08 01:14:12;;;;;;;10.93;8.20;;;5.40;99.90;;;;;;5070662;28;20219;-62
2021/01/08 01:16:39;;;;;;;10.83;7.50;;;5.30;99.90;;;;;;5070887;28;20233;-62
2021/01/08 01:19:05;;;;;;;11.03;8.37;;;5.40;99.90;;;;;;5070836;28;20231;-62
2021/01/08 01:21:32;;;;;;;11.33;8.23;;;5.40;99.90;;;;;;5070793;28;20212;-62
2021/01/08 01:23:58;;;;;;;9.47;7.60;;;5.40;99.90;;;;;;5070643;28;20208;-62
2021/01/08 01:26:25;;;;;;;12.30;8.13;;;5.40;99.90;;;;;;5070898;28;20220;-62
2021/01/08 01:28:51;;;;;;;10.83;7.40;;;5.40;99.90;;;;;;5070687;28;20213;-62
2021/01/08 01:31:17;;;;;;;10.67;7.80;;;5.40;99.90;;;;;;5070972;28;20204;-62
2021/01/08 01:33:43;;;;;;;12.03;8.00;;;5.40;99.90;;;;;;5070389;28;20259;-62
2021/01/08 01:36:10;;;;;;;10.57;7.57;;;5.40;99.90;;;;;;5074637;28;20229;-62
2021/01/08 01:38:37;;;;;;;11.00;7.87;;;5.30;99.90;;;;;;5074567;28;20213;-62
2021/01/08 01:41:05;;;;;;;13.43;9.60;;;5.30;99.90;;;;;;5074842;28;20205;-62
2021/01/08 01:43:31;;;;;;;12.57;9.60;;;5.20;99.90;;;;;;5074522;28;20235;-62
2021/01/08 01:45:57;;;;;;;13.03;9.77;;;5.20;99.90;;;;;;5074481;28;20233;-62
2021/01/08 01:48:24;;;;;;;10.23;7.97;;;5.10;99.90;;;;;;5074149;28;20565;-62
2021/01/08 01:50:51;;;;;;;10.10;6.87;;;5.10;99.90;;;;;;5075130;28;20205;-62
2021/01/08 01:53:17;;;;;;;10.17;7.40;;;5.00;99.90;;;;;;5074715;28;20212;-61
2021/01/08 01:55:46;;;;;;;11.13;7.90;;;4.90;99.90;;;;;;5074045;28;20200;-62
2021/01/08 01:58:12;;;;;;;8.60;6.70;;;4.80;99.90;;;;;;5074169;28;20232;-61
2021/01/08 02:00:38;;;;;;;9.20;6.97;;;4.70;99.90;;;;;;5074121;28;20259;-62
2021/01/08 02:03:09;;;;;;;8.77;6.47;;;4.60;99.90;;;;;;5074093;28;20681;-61
2021/01/08 02:05:37;;;;;;;8.90;6.50;;;4.50;99.90;;;;;;5073821;28;20229;-62
2021/01/08 02:08:07;;;;;;;9.40;7.20;;;4.40;99.90;;;;;;5073814;28;20205;-61
2021/01/08 02:10:38;;;;;;;12.60;8.03;;;4.40;99.90;;;;;;5074099;28;20205;-62
2021/01/08 02:13:06;;;;;;;7.93;6.00;;;4.40;99.90;;;;;;5074263;28;20338;-62
2021/01/08 02:15:33;;;;;;;8.27;6.50;;;4.50;99.90;;;;;;5073518;28;20205;-60
2021/01/08 02:18:02;;;;;;;8.13;6.27;;;4.50;99.90;;;;;;5073570;28;20763;-62
2021/01/08 02:20:30;;;;;;;9.83;6.20;;;4.60;99.90;;;;;;5074139;28;20201;-62
2021/01/08 02:23:02;;;;;;;8.27;6.20;;;4.60;99.90;;;;;;5073747;28;20684;-62
2021/01/08 02:25:31;;;;;;;8.03;6.20;;;4.50;99.90;;;;;;5073586;28;20705;-62
2021/01/08 02:28:20;;;;;;;9.03;6.03;;;4.40;99.90;;;;;;5073265;28;20225;-62
2021/01/08 02:30:46;;;;;;;9.33;6.40;;;4.30;99.90;;;;;;5073848;28;20216;-62
2021/01/08 02:33:14;;;;;;;9.90;6.40;;;4.40;99.90;;;;;;5073963;28;20201;-61
2021/01/08 02:35:41;;;;;;;9.77;6.83;;;4.40;99.90;;;;;;5073185;28;20593;-63
2021/01/08 02:38:08;;;;;;;8.37;6.43;;;4.50;99.90;;;;;;5073238;28;20673;-62
2021/01/08 02:40:36;;;;;;;8.53;6.17;;;4.60;99.90;;;;;;5073441;28;20201;-62
2021/01/08 02:43:04;;;;;;;10.87;6.37;;;4.60;99.90;;;;;;5073755;28;20278;-62
2021/01/08 02:45:31;;;;;;;8.63;6.80;;;4.70;99.90;;;;;;5072876;28;20610;-62
2021/01/08 02:47:58;;;;;;;9.93;6.27;;;4.80;99.90;;;;;;5072617;28;20239;-62
2021/01/08 02:50:25;;;;;;;8.40;5.73;;;4.80;99.90;;;;;;5073423;28;20200;-61
2021/01/08 02:52:55;;;;;;;8.17;5.43;;;4.80;99.90;;;;;;5073153;28;20205;-62
2021/01/08 02:55:27;;;;;;;8.50;6.20;;;4.90;99.90;;;;;;5073510;28;20212;-62
2021/01/08 02:57:54;;;;;;;8.97;6.20;;;4.90;99.90;;;;;;5073049;28;20224;-62
2021/01/08 03:00:21;;;;;;;7.70;6.03;;;4.90;99.90;;;;;;5073341;28;20216;-62
2021/01/08 03:02:48;;;;;;;9.30;6.07;;;4.90;99.90;;;;;;5073134;28;20213;-62
2021/01/08 03:05:14;;;;;;;9.43;6.43;;;4.90;99.90;;;;;;5072598;28;20606;-62
2021/01/08 03:07:41;;;;;;;9.37;6.40;;;4.90;99.90;;;;;;5072904;28;20239;-61
2021/01/08 03:10:09;;;;;;;8.40;6.20;;;5.00;99.90;;;;;;5073073;28;20204;-62
2021/01/08 03:12:36;;;;;;;10.43;6.97;;;5.00;99.90;;;;;;5073316;28;20212;-62
2021/01/08 03:15:07;;;;;;;8.60;6.33;;;5.00;99.90;;;;;;5072866;28;20204;-63
2021/01/08 03:17:33;;;;;;;9.37;6.77;;;5.00;99.90;;;;;;5072586;28;20233;-62
2021/01/08 03:19:59;;;;;;;9.63;7.00;;;5.00;99.90;;;;;;5073043;28;20212;-61
2021/01/08 03:22:25;;;;;;;8.77;6.80;;;5.00;99.90;;;;;;5073109;28;20209;-61
2021/01/08 03:24:52;;;;;;;9.10;6.50;;;5.00;99.90;;;;;;5072596;28;20424;-61
2021/01/08 03:27:18;;;;;;;9.70;6.70;;;5.00;99.90;;;;;;5072850;28;20225;-61
2021/01/08 03:29:44;;;;;;;7.93;6.50;;;5.00;99.90;;;;;;5072463;28;20205;-62
2021/01/08 03:32:11;;;;;;;9.43;6.90;;;4.90;99.90;;;;;;5072829;28;20247;-62
2021/01/08 03:34:37;;;;;;;9.17;6.87;;;4.90;99.90;;;;;;5072202;28;20201;-62
2021/01/08 03:37:03;;;;;;;9.57;6.87;;;4.90;99.90;;;;;;5072359;28;20326;-62
2021/01/08 03:39:29;;;;;;;11.87;7.27;;;4.90;99.90;;;;;;5072213;28;20205;-62
2021/01/08 03:41:55;;;;;;;9.90;6.33;;;4.90;99.90;;;;;;5072629;28;20657;-62
2021/01/08 03:44:22;;;;;;;9.03;6.87;;;4.80;99.90;;;;;;5071867;28;20626;-62
2021/01/08 03:46:48;;;;;;;8.60;5.90;;;4.80;99.90;;;;;;5072105;28;20224;-61
2021/01/08 03:49:15;;;;;;;8.17;5.83;;;4.80;99.90;;;;;;5071765;28;20212;-61
2021/01/08 03:51:41;;;;;;;8.57;6.63;;;4.70;99.90;;;;;;5072235;28;20213;-61
2021/01/08 03:54:07;;;;;;;8.60;6.30;;;4.70;99.90;;;;;;5072171;28;20209;-61
2021/01/08 03:56:33;;;;;;;9.60;6.57;;;4.60;99.90;;;;;;5071972;28;20217;-62
2021/01/08 03:59:00;;;;;;;8.27;5.37;;;4.60;99.90;;;;;;5071559;28;20263;-61
2021/01/08 04:01:26;;;;;;;8.53;6.27;;;4.60;99.90;;;;;;5071820;28;20209;-61
2021/01/08 04:03:52;;;;;;;9.20;6.40;;;4.60;99.90;;;;;;5071867;28;20216;-61
2021/01/08 04:06:19;;;;;;;8.97;6.67;;;4.60;99.90;;;;;;5071657;28;20653;-60
2021/01/08 04:08:45;;;;;;;8.40;6.10;;;4.60;99.90;;;;;;5071744;28;20207;-60
2021/01/08 04:11:11;;;;;;;8.70;6.00;;;4.50;99.90;;;;;;5071709;28;20209;-61
2021/01/08 04:13:37;;;;;;;9.17;6.37;;;4.60;99.90;;;;;;5071359;28;20254;-62
2021/01/08 04:16:04;;;;;;;8.47;6.40;;;4.50;99.90;;;;;;5071354;28;20713;-61
2021/01/08 04:18:30;;;;;;;9.23;6.60;;;4.50;99.90;;;;;;5071324;28;20223;-61
2021/01/08 04:20:57;;;;;;;11.07;6.83;;;4.40;99.90;;;;;;5071851;28;20209;-61
2021/01/08 04:23:24;;;;;;;55.47;39.70;;;4.30;99.90;;;;;;5071243;28;20205;-62
2021/01/08 04:25:50;;;;;;;12.13;9.30;;;4.40;99.90;;;;;;5071387;28;20285;-61
2021/01/08 04:28:16;;;;;;;11.27;7.50;;;4.30;99.90;;;;;;5071138;28;20699;-63
2021/01/08 04:30:42;;;;;;;9.87;7.27;;;4.30;99.90;;;;;;5071565;28;20676;-62
2021/01/08 04:33:09;;;;;;;9.00;6.87;;;4.20;99.90;;;;;;5071672;28;20212;-62
2021/01/08 04:35:35;;;;;;;9.20;6.67;;;4.10;99.90;;;;;;5071285;28;20209;-62
2021/01/08 04:38:01;;;;;;;10.30;7.43;;;4.20;99.90;;;;;;5071279;28;20201;-64
2021/01/08 04:40:29;;;;;;;9.70;7.13;;;4.10;99.90;;;;;;5071410;28;20264;-63
2021/01/08 04:42:55;;;;;;;9.77;7.53;;;4.10;99.90;;;;;;5071665;28;20687;-63
2021/01/08 04:45:21;;;;;;;10.23;7.07;;;4.10;99.90;;;;;;5070762;28;20221;-62
2021/01/08 04:47:49;;;;;;;9.80;7.30;;;4.20;99.90;;;;;;5070618;28;20224;-62
2021/01/08 04:50:15;;;;;;;9.47;6.73;;;4.30;99.90;;;;;;5071382;28;20204;-63
2021/01/08 04:52:41;;;;;;;8.40;6.40;;;4.40;99.90;;;;;;5071354;28;20205;-63
2021/01/08 04:55:09;;;;;;;9.90;7.47;;;4.40;99.90;;;;;;5070803;28;20251;-62
2021/01/08 04:57:39;;;;;;;8.97;7.23;;;4.40;99.90;;;;;;5070622;28;20252;-63
2021/01/08 05:00:07;;;;;;;9.70;7.23;;;4.40;99.90;;;;;;5070650;28;20209;-63
2021/01/08 05:02:33;;;;;;;11.30;7.57;;;4.50;99.90;;;;;;5070895;28;20204;-63
2021/01/08 05:05:00;;;;;;;9.10;6.43;;;4.50;99.90;;;;;;5070849;28;20221;-63
2021/01/08 05:07:26;;;;;;;9.27;6.93;;;4.50;99.90;;;;;;5070998;28;20240;-62
2021/01/08 05:09:52;;;;;;;9.57;6.63;;;4.60;99.90;;;;;;5070277;28;20236;-62
2021/01/08 05:12:18;;;;;;;9.87;7.10;;;4.60;99.90;;;;;;5071003;28;20220;-62
2021/01/08 05:14:47;;;;;;;11.73;8.27;;;4.50;99.90;;;;;;5070659;28;20201;-62
2021/01/08 05:17:13;;;;;;;9.20;6.90;;;4.60;99.90;;;;;;5070533;28;20232;-62
2021/01/08 05:19:39;;;;;;;8.70;6.47;;;4.70;99.90;;;;;;5070518;28;20208;-62
2021/01/08 05:22:06;;;;;;;9.40;7.13;;;4.70;99.90;;;;;;5070768;28;20200;-63
2021/01/08 05:24:33;;;;;;;9.33;7.00;;;4.70;99.90;;;;;;5070531;28;20304;-62
2021/01/08 05:27:04;;;;;;;9.67;7.57;;;4.80;99.90;;;;;;5070867;28;20469;-62
2021/01/08 05:29:31;;;;;;;12.03;8.10;;;4.70;99.90;;;;;;5070584;28;20692;-63
2021/01/08 05:31:58;;;;;;;10.40;7.90;;;4.80;99.90;;;;;;5070814;28;20215;-63
2021/01/08 05:34:26;;;;;;;14.63;8.20;;;4.80;99.90;;;;;;5070371;28;20207;-62
2021/01/08 05:36:53;;;;;;;9.30;7.40;;;4.80;99.90;;;;;;5070593;28;20232;-63
2021/01/08 05:39:20;;;;;;;11.30;7.70;;;4.90;99.90;;;;;;5070800;28;20257;-63
2021/01/08 05:41:46;;;;;;;10.00;6.97;;;4.80;99.90;;;;;;5070434;28;20310;-62
2021/01/08 05:44:16;;;;;;;9.37;7.17;;;4.80;99.90;;;;;;5070116;28;20266;-63
2021/01/08 05:46:42;;;;;;;9.77;6.90;;;4.80;99.90;;;;;;5070518;28;20255;-63
2021/01/08 05:49:10;;;;;;;9.00;7.00;;;4.80;99.90;;;;;;5070337;28;20583;-63
2021/01/08 05:51:39;;;;;;;9.87;7.27;;;4.80;99.90;;;;;;5070653;28;20205;-63
2021/01/08 05:54:06;;;;;;;10.70;7.37;;;4.80;99.90;;;;;;5070240;28;20205;-63
2021/01/08 05:56:34;;;;;;;10.77;7.03;;;4.80;99.90;;;;;;5070422;28;20213;-62
2021/01/08 05:59:04;;;;;;;9.43;7.17;;;4.80;99.90;;;;;;5070405;28;20213;-63
2021/01/08 06:01:30;;;;;;;9.03;7.30;;;4.80;99.90;;;;;;5070655;28;20259;-62
2021/01/08 06:03:56;;;;;;;9.87;7.10;;;4.80;99.90;;;;;;5070249;28;20237;-63
2021/01/08 06:06:24;;;;;;;8.83;6.93;;;4.70;99.90;;;;;;5070555;28;20225;-63
2021/01/08 06:08:52;;;;;;;9.13;6.77;;;4.70;99.90;;;;;;5070092;28;20630;-63
2021/01/08 06:11:20;;;;;;;10.70;7.50;;;4.60;99.90;;;;;;5070535;28;20239;-62
2021/01/08 06:13:51;;;;;;;10.03;6.97;;;4.60;99.90;;;;;;5069532;28;20680;-63
2021/01/08 06:16:19;;;;;;;11.13;7.70;;;4.50;99.90;;;;;;5069943;28;20746;-62
2021/01/08 06:18:47;;;;;;;10.57;6.80;;;4.50;99.90;;;;;;5069952;28;20209;-63
2021/01/08 06:21:14;;;;;;;9.67;7.03;;;4.60;99.90;;;;;;5070713;28;20205;-62
2021/01/08 06:23:43;;;;;;;10.17;6.80;;;4.50;99.90;;;;;;5073321;28;20209;-63
2021/01/08 06:26:11;;;;;;;10.43;6.50;;;4.50;99.90;;;;;;5073851;28;20282;-63
2021/01/08 06:28:42;;;;;;;9.00;6.33;;;4.60;99.90;;;;;;5073501;28;20205;-62
2021/01/08 06:31:15;;;;;;;10.60;7.33;;;4.40;99.90;;;;;;5073864;28;20379;-63
2021/01/08 06:33:52;;;;;;;9.73;6.53;;;4.50;99.90;;;;;;5073479;28;20204;-63
2021/01/08 06:36:19;;;;;;;10.80;7.00;;;4.50;99.90;;;;;;5073856;28;20255;-62
2021/01/08 06:38:49;;;;;;;9.27;6.53;;;4.40;99.90;;;;;;5073462;28;20208;-63
2021/01/08 06:41:17;;;;;;;9.30;7.00;;;4.40;99.90;;;;;;5073782;28;20205;-63
2021/01/08 06:43:55;;;;;;;9.40;6.83;;;4.40;99.90;;;;;;5073251;28;20213;-63
2021/01/08 06:46:27;;;;;;;10.47;7.13;;;4.40;99.90;;;;;;5073150;28;20232;-64
2021/01/08 06:48:54;;;;;;;9.30;7.10;;;4.40;99.90;;;;;;5073143;28;20204;-63
2021/01/08 06:51:29;;;;;;;8.73;6.57;;;4.40;99.90;;;;;;5073638;28;20627;-63
2021/01/08 06:54:03;;;;;;;11.97;7.37;;;4.30;99.90;;;;;;5073030;28;20204;-63
2021/01/08 06:56:35;;;;;;;9.13;6.57;;;4.40;99.90;;;;;;5073180;28;20221;-63
2021/01/08 06:59:04;;;;;;;11.40;6.73;;;4.30;99.90;;;;;;5072992;28;20201;-63
2021/01/08 07:01:40;;;;;;;10.30;6.63;;;4.30;99.90;;;;;;5073067;28;20591;-63
2021/01/08 07:04:09;;;;;;;8.47;6.03;;;4.30;99.90;;;;;;5072720;28;20205;-63
2021/01/08 07:06:36;;;;;;;8.13;6.30;;;4.20;99.90;;;;;;5072861;28;20236;-63
2021/01/08 07:09:05;;;;;;;9.53;6.70;;;4.20;99.90;;;;;;5072692;28;20254;-63
2021/01/08 07:11:32;;;;;;;9.10;6.70;;;4.30;99.90;;;;;;5072917;28;20240;-63
2021/01/08 07:14:05;;;;;;;10.10;6.77;;;4.40;99.90;;;;;;5072814;28;20489;-63
2021/01/08 07:16:32;;;;;;;10.20;6.83;;;4.40;99.90;;;;;;5073276;28;20243;-63
2021/01/08 07:19:05;;;;;;;10.50;7.00;;;4.50;99.90;;;;;;5073070;28;20409;-63
2021/01/08 07:21:33;;;;;;;7.07;5.83;;;4.60;99.90;;;;;;5073043;28;20597;-63
2021/01/08 07:24:01;;;;;;;9.90;7.10;;;4.60;99.90;;;;;;5072459;28;20684;-63
2021/01/08 07:26:29;;;;;;;8.77;5.73;;;4.70;99.90;;;;;;5073071;28;20229;-63
2021/01/08 07:28:56;;;;;;;9.33;6.43;;;4.60;99.90;;;;;;5072397;28;20209;-62
2021/01/08 07:31:32;;;;;;;9.80;6.47;;;4.60;99.90;;;;;;5072776;28;20630;-63
2021/01/08 07:33:59;;;;;;;12.00;7.53;;;4.60;99.90;;;;;;5071945;28;20200;-63
2021/01/08 07:36:27;;;;;;;7.60;5.83;;;4.60;99.90;;;;;;5072401;28;20221;-63
2021/01/08 07:38:54;;;;;;;10.20;6.97;;;4.70;99.90;;;;;;5072319;28;20233;-63
2021/01/08 07:41:39;;;;;;;9.23;6.67;;;4.70;99.90;;;;;;5072386;28;20244;-63
2021/01/08 07:44:32;;;;;;;7.00;5.30;;;4.80;99.90;;;;;;5072444;28;20209;-63
2021/01/08 07:47:22;;;;;;;8.27;5.73;;;4.80;99.90;;;;;;5071930;28;20247;-62
2021/01/08 07:50:12;;;;;;;8.03;5.97;;;4.90;99.90;;;;;;5072278;28;20209;-62
2021/01/08 07:52:40;;;;;;;8.17;6.03;;;5.00;99.90;;;;;;5072420;28;20216;-63
2021/01/08 07:55:07;;;;;;;6.47;5.23;;;5.00;99.90;;;;;;5071708;28;20197;-62
2021/01/08 07:58:03;;;;;;;7.03;5.70;;;5.00;99.90;;;;;;5071889;28;20595;-63
2021/01/08 08:00:31;;;;;;;9.20;6.20;;;4.90;99.90;;;;;;5072068;28;20247;-62
2021/01/08 08:02:59;;;;;;;6.80;5.17;;;5.10;99.90;;;;;;5072019;28;20209;-63
2021/01/08 08:05:26;;;;;;;8.10;5.80;;;5.30;99.90;;;;;;5071365;28;20229;-63
2021/01/08 08:07:56;;;;;;;7.67;5.00;;;5.30;99.90;;;;;;5071779;28;20321;-64
2021/01/08 08:10:23;;;;;;;6.67;5.23;;;5.30;99.90;;;;;;5072034;28;20308;-60
2021/01/08 08:12:51;;;;;;;7.17;5.57;;;5.30;99.90;;;;;;5071800;28;20292;-58
2021/01/08 08:15:17;;;;;;;7.27;5.27;;;5.20;99.90;;;;;;5071628;28;20204;-58
2021/01/08 08:17:44;;;;;;;6.57;4.80;;;5.20;99.90;;;;;;5071653;28;20263;-58
2021/01/08 08:20:18;;;;;;;7.03;4.70;;;5.10;99.90;;;;;;5071683;28;20286;-58
2021/01/08 08:22:44;;;;;;;5.63;4.57;;;5.00;99.90;;;;;;5071774;28;20209;-58
2021/01/08 08:25:29;;;;;;;7.00;4.83;;;4.80;99.90;;;;;;5071275;28;20235;-58
2021/01/08 08:27:57;;;;;;;7.90;5.03;;;4.90;99.90;;;;;;5071198;28;20225;-59
2021/01/08 08:30:24;;;;;;;6.43;4.97;;;4.90;99.90;;;;;;5071441;28;20204;-59
2021/01/08 08:32:51;;;;;;;7.20;4.87;;;4.80;99.90;;;;;;5071433;28;20207;-59
2021/01/08 08:35:19;;;;;;;7.53;4.83;;;4.80;99.90;;;;;;5071362;28;20204;-59
2021/01/08 08:37:49;;;;;;;9.87;4.90;;;4.90;99.90;;;;;;5071276;28;20231;-59
2021/01/08 08:40:17;;;;;;;7.63;4.87;;;4.70;99.90;;;;;;5071690;28;20208;-60
2021/01/08 08:42:48;;;;;;;6.70;4.87;;;4.80;99.90;;;;;;5071633;28;20201;-59
2021/01/08 08:45:19;;;;;;;8.00;4.43;;;4.80;99.90;;;;;;5070195;28;20229;-60
2021/01/08 08:47:47;;;;;;;68.33;38.30;;;4.90;99.90;;;;;;5071125;28;20221;-58
2021/01/08 08:50:15;;;;;;;6.70;5.07;;;4.90;99.90;;;;;;5071182;28;20239;-60
2021/01/08 08:52:42;;;;;;;5.93;4.67;;;4.90;99.90;;;;;;5071371;28;20213;-58
2021/01/08 08:55:23;;;;;;;5.83;4.67;;;5.00;99.90;;;;;;5070727;28;20292;-58
2021/01/08 08:57:49;;;;;;;5.97;4.60;;;5.00;99.90;;;;;;5070537;28;20769;-62
2021/01/08 09:00:19;;;;;;;7.00;5.10;;;4.90;99.90;;;;;;5071249;28;20205;-60
2021/01/08 09:02:45;;;;;;;9.33;4.70;;;5.00;99.90;;;;;;5071081;28;20752;-58
2021/01/08 09:05:12;;;;;;;6.77;5.23;;;5.00;99.90;;;;;;5070649;28;20224;-61
2021/01/08 09:07:43;;;;;;;6.13;4.87;;;5.20;99.90;;;;;;5070748;28;20716;-60
2021/01/08 09:10:14;;;;;;;6.77;5.00;;;5.40;99.90;;;;;;5070812;28;20204;-60
2021/01/08 09:12:47;;;;;;;7.40;4.90;;;5.50;99.90;;;;;;5071188;28;20628;-61
2021/01/08 09:15:18;;;;;;;8.40;5.00;;;5.70;99.90;;;;;;5070624;28;20204;-61
2021/01/08 09:17:48;;;;;;;9.50;6.03;;;5.70;99.90;;;;;;5073285;22;20248;-58
2021/01/08 09:20:17;;;;;;;7.90;5.33;;;5.70;99.90;;;;;;5051910;28;20681;-58
2021/01/08 09:22:44;;;;;;;9.10;6.37;;;5.80;99.90;;;;;;5051102;28;20699;-58
2021/01/08 09:25:12;;;;;;;8.10;4.50;;;5.80;99.90;;;;;;5051520;28;20229;-58
2021/01/08 09:27:42;;;;;;;5.77;4.30;;;5.80;99.90;;;;;;5051656;28;20251;-58
2021/01/08 09:30:09;;;;;;;8.47;4.40;;;5.70;99.90;;;;;;5051541;28;20263;-59
2021/01/08 09:32:36;;;;;;;7.77;4.17;;;5.70;99.90;;;;;;5051552;28;20213;-59
2021/01/08 09:35:04;;;;;;;10.83;6.60;;;5.70;99.90;;;;;;5051458;28;20205;-59
2021/01/08 09:37:38;;;;;;;6.17;4.53;;;5.70;99.90;;;;;;5051866;28;20343;-59
2021/01/08 09:40:14;;;;;;;5.87;3.80;;;5.70;99.90;;;;;;5051768;28;20237;-59
2021/01/08 09:42:41;;;;;;;6.10;3.57;;;5.70;99.90;;;;;;5051380;28;20205;-58
2021/01/08 09:45:21;;;;;;;4.70;3.43;;;5.80;99.90;;;;;;5051580;28;20712;-58
2021/01/08 09:47:48;;;;;;;6.83;3.67;;;5.80;99.90;;;;;;5051097;28;20260;-59
2021/01/08 09:50:25;;;;;;;4.87;3.67;;;5.90;99.90;;;;;;5051552;28;20206;-61
2021/01/08 09:52:52;;;;;;;5.97;3.30;;;6.00;99.90;;;;;;5051277;28;20680;-59
2021/01/08 09:55:26;;;;;;;4.77;3.33;;;6.20;99.90;;;;;;5051917;28;20207;-59
2021/01/08 09:57:59;;;;;;;6.90;3.53;;;6.20;99.90;;;;;;5054968;28;20228;-59
2021/01/08 10:00:30;;;;;;;5.53;3.37;;;6.20;99.90;;;;;;5054866;28;20212;-59
2021/01/08 10:02:57;;;;;;;7.23;3.33;;;6.30;99.90;;;;;;5054605;28;20202;-59
2021/01/08 10:05:28;;;;;;;7.73;3.67;;;6.20;99.90;;;;;;5054362;28;20500;-60
2021/01/08 10:07:56;;;;;;;7.67;3.80;;;6.20;99.90;;;;;;5054010;28;20226;-60
2021/01/08 10:10:42;;;;;;;5.07;3.50;;;6.20;99.90;;;;;;5054281;28;20699;-60
2021/01/08 10:13:20;;;;;;;4.77;3.33;;;6.40;99.90;;;;;;5054214;28;20258;-59
2021/01/08 10:15:48;;;;;;;4.03;3.23;;;6.40;99.90;;;;;;5053911;28;20502;-59
2021/01/08 10:18:16;;;;;;;7.00;4.50;;;6.50;99.90;;;;;;5053480;28;20708;-60
2021/01/08 10:20:45;;;;;;;5.53;3.43;;;6.50;99.90;;;;;;5053603;28;20209;-59
2021/01/08 10:23:13;;;;;;;3.73;3.13;;;6.60;99.90;;;;;;5053673;28;20260;-59
2021/01/08 10:25:40;;;;;;;4.57;2.90;;;6.70;99.90;;;;;;5053652;28;20606;-59
2021/01/08 10:28:12;;;;;;;4.03;3.30;;;6.80;99.90;;;;;;5053780;28;20226;-59
2021/01/08 10:30:39;;;;;;;7.20;4.50;;;6.70;99.90;;;;;;5053569;28;20673;-59
2021/01/08 10:33:06;;;;;;;5.37;3.90;;;6.70;99.90;;;;;;5053753;28;20209;-59
2021/01/08 10:35:33;;;;;;;4.80;3.00;;;6.70;99.90;;;;;;5053466;28;20284;-60
2021/01/08 10:37:59;;;;;;;4.37;3.60;;;6.70;99.90;;;;;;5053483;28;20229;-60
2021/01/08 10:40:25;;;;;;;6.53;4.07;;;6.60;99.90;;;;;;5053545;28;20271;-59
2021/01/08 10:42:52;;;;;;;5.13;3.53;;;6.60;99.90;;;;;;5053376;28;20620;-59
2021/01/08 10:45:19;;;;;;;4.50;3.60;;;6.70;99.90;;;;;;5053144;28;20333;-60
2021/01/08 10:47:45;;;;;;;5.47;3.40;;;6.70;99.90;;;;;;5052879;28;20229;-60
2021/01/08 10:50:13;;;;;;;4.80;3.70;;;6.70;99.90;;;;;;5053231;28;20240;-59
2021/01/08 10:52:39;;;;;;;6.03;3.57;;;6.60;99.90;;;;;;5053458;28;20259;-60
2021/01/08 10:55:09;;;;;;;4.77;3.60;;;6.60;99.90;;;;;;5053180;28;20202;-59
2021/01/08 10:57:35;;;;;;;4.57;3.50;;;6.60;99.90;;;;;;5053470;28;20226;-59
2021/01/08 11:00:01;;;;;;;6.30;3.80;;;6.50;99.90;;;;;;5053606;28;20212;-59
2021/01/08 11:02:28;;;;;;;5.50;3.93;;;6.50;99.90;;;;;;5053605;28;20202;-59
2021/01/08 11:04:54;;;;;;;5.20;3.90;;;6.40;99.90;;;;;;5055055;28;20216;-59
2021/01/08 11:07:20;;;;;;;6.23;3.90;;;6.40;99.90;;;;;;5055434;28;20233;-59
2021/01/08 11:09:46;;;;;;;5.73;4.47;;;6.40;99.90;;;;;;5053592;28;20214;-59
2021/01/08 11:12:13;;;;;;;10.60;7.27;;;6.40;99.90;;;;;;5053337;28;20209;-59
2021/01/08 11:14:39;;;;;;;5.80;4.57;;;6.40;99.90;;;;;;5053543;28;20217;-60
2021/01/08 11:17:05;;;;;;;6.87;4.60;;;6.40;99.90;;;;;;5052725;28;20240;-59
2021/01/08 11:19:32;;;;;;;5.30;4.50;;;6.40;99.90;;;;;;5052582;28;20292;-59
2021/01/08 11:21:59;;;;;;;6.03;4.53;;;6.50;99.90;;;;;;5052885;28;20210;-59
2021/01/08 11:24:25;;;;;;;6.50;4.97;;;6.50;99.90;;;;;;5052675;28;20206;-60
2021/01/08 11:26:51;;;;;;;8.90;5.77;;;6.50;99.90;;;;;;5052460;28;20233;-59
2021/01/08 11:29:17;;;;;;;12.43;5.30;;;6.50;99.90;;;;;;5052477;28;20213;-59
2021/01/08 11:31:43;;;;;;;9.93;5.50;;;6.40;99.90;;;;;;5052693;28;20213;-59
2021/01/08 11:34:10;;;;;;;6.57;4.80;;;6.30;99.90;;;;;;5052847;28;20221;-59
2021/01/08 11:36:38;;;;;;;6.83;5.00;;;6.30;99.90;;;;;;5048896;28;20226;-59
2021/01/08 11:39:06;;;;;;;6.27;5.03;;;6.20;99.90;;;;;;5052533;28;20278;-60
2021/01/08 11:41:32;;;;;;;8.50;5.57;;;6.20;99.90;;;;;;5052572;28;20232;-60
2021/01/08 11:43:58;;;;;;;6.60;4.87;;;6.10;99.90;;;;;;5052418;28;20201;-61
2021/01/08 11:46:25;;;;;;;6.87;5.30;;;6.00;99.90;;;;;;5052433;28;20233;-61
2021/01/08 11:48:52;;;;;;;6.40;5.13;;;5.90;99.90;;;;;;5052020;28;20673;-61
2021/01/08 11:51:18;;;;;;;6.93;5.40;;;5.90;99.90;;;;;;5052623;28;20201;-61
2021/01/08 11:53:47;;;;;;;7.63;5.13;;;5.80;99.90;;;;;;5052357;28;20259;-61
2021/01/08 11:56:14;;;;;;;9.40;5.40;;;5.80;99.90;;;;;;5052047;28;20206;-60
2021/01/08 11:58:41;;;;;;;7.13;5.20;;;5.70;99.90;;;;;;5052784;28;20217;-61
2021/01/08 12:01:08;;;;;;;11.13;5.80;;;5.70;99.90;;;;;;5052053;28;20210;-61
2021/01/08 12:03:36;;;;;;;9.50;5.97;;;5.70;99.90;;;;;;5052137;28;20633;-60
2021/01/08 12:06:03;;;;;;;8.57;6.00;;;5.80;99.90;;;;;;5051967;28;20229;-60
2021/01/08 12:08:31;;;;;;;8.23;5.77;;;5.80;99.90;;;;;;5052697;28;20231;-60
2021/01/08 12:10:58;;;;;;;6.80;5.67;;;5.60;99.90;;;;;;5053227;28;20217;-64
2021/01/08 12:13:24;;;;;;;7.43;5.10;;;5.60;99.90;;;;;;5052444;28;20665;-60
2021/01/08 12:15:50;;;;;;;7.03;5.57;;;5.60;99.90;;;;;;5052202;28;20259;-62
2021/01/08 12:18:17;;;;;;;8.40;5.87;;;5.70;99.90;;;;;;5051094;28;20263;-63
2021/01/08 12:20:44;;;;;;;7.00;5.27;;;5.60;99.90;;;;;;5051711;28;20731;-63
2021/01/08 12:23:10;;;;;;;7.33;5.47;;;5.60;99.90;;;;;;5052390;28;20210;-62
2021/01/08 12:25:37;;;;;;;6.73;5.20;;;5.70;99.90;;;;;;5051825;28;20236;-58
2021/01/08 12:28:05;;;;;;;8.87;5.30;;;5.60;99.90;;;;;;5051587;28;20284;-58
2021/01/08 12:30:31;;;;;;;7.83;5.30;;;5.70;99.90;;;;;;5052124;28;20206;-57
2021/01/08 12:32:59;;;;;;;6.87;5.27;;;5.70;99.90;;;;;;5051791;28;20289;-59
2021/01/08 12:35:25;;;;;;;7.37;5.33;;;5.60;99.90;;;;;;5051555;28;20211;-61
2021/01/08 12:37:52;;;;;;;8.50;5.90;;;5.60;99.90;;;;;;5051761;28;20282;-61
2021/01/08 12:40:19;;;;;;;7.40;5.63;;;5.70;99.90;;;;;;5051440;28;20284;-58
2021/01/08 12:42:47;;;;;;;7.00;5.53;;;5.70;99.90;;;;;;5051210;28;20209;-57
2021/01/08 12:45:15;;;;;;;7.37;5.67;;;5.80;99.90;;;;;;5051268;28;20209;-57
2021/01/08 12:47:42;;;;;;;9.07;6.13;;;5.80;99.90;;;;;;5051043;28;20236;-58
2021/01/08 12:50:08;;;;;;;8.90;5.10;;;6.00;99.90;;;;;;5051331;28;20206;-58
2021/01/08 12:52:35;;;;;;;10.63;5.83;;;6.00;99.90;;;;;;5051211;28;20631;-58
2021/01/08 12:55:01;;;;;;;7.43;5.47;;;6.10;99.90;;;;;;5049607;28;20403;-58
2021/01/08 12:57:27;;;;;;;6.10;4.97;;;6.10;99.90;;;;;;5063172;28;20236;-60
2021/01/08 12:59:53;;;;;;;34.00;21.53;;;6.00;99.90;;;;;;5070794;28;20701;-60